createdAt,value
2023-05-07T00:02:40.434Z,15.48
2023-05-07T00:08:40.854Z,15.46
2023-05-07T00:11:27.628Z,15.34
2023-05-07T00:14:14.018Z,15.06
2023-05-07T00:17:00.493Z,15.17
2023-05-07T00:19:46.775Z,15.17
2023-05-07T00:22:33.400Z,15.05
2023-05-07T00:25:27.758Z,14.81
2023-05-07T00:28:20.514Z,14.99
2023-05-07T00:34:25.545Z,15.05
2023-05-07T00:40:36.095Z,15.06
2023-05-07T00:43:29.595Z,15.10
2023-05-07T00:46:23.335Z,15.14
2023-05-07T00:49:18.484Z,15.02
2023-05-07T00:52:13.201Z,15.07
2023-05-07T00:55:31.492Z,15.02
2023-05-07T00:58:25.708Z,15.08
2023-05-07T01:01:17.911Z,15.14
2023-05-07T01:04:10.225Z,15.22
2023-05-07T01:07:03.256Z,15.26
2023-05-07T01:09:58.693Z,15.19
2023-05-07T01:12:52.242Z,15.23
2023-05-07T01:15:46.807Z,15.18
2023-05-07T01:18:39.146Z,15.13
2023-05-07T01:21:34.864Z,15.21
2023-05-07T01:24:31.129Z,15.20
2023-05-07T01:27:24.458Z,15.19
2023-05-07T01:30:18.967Z,15.16
2023-05-07T01:33:13.375Z,15.29
2023-05-07T01:36:08.187Z,15.34
2023-05-07T01:39:01.265Z,15.39
2023-05-07T01:41:55.639Z,15.35
2023-05-07T01:44:49.584Z,15.37
2023-05-07T01:47:42.470Z,15.20
2023-05-07T01:51:03.511Z,15.21
2023-05-07T01:53:56.348Z,15.19
2023-05-07T01:57:06.443Z,15.16
2023-05-07T01:59:57.525Z,15.24
2023-05-07T02:05:57.079Z,15.12
2023-05-07T02:08:56.283Z,15.19
2023-05-07T02:11:49.459Z,15.16
2023-05-07T02:15:11.426Z,15.12
2023-05-07T02:18:05.650Z,15.07
2023-05-07T02:21:12.279Z,15.06
2023-05-07T02:24:05.460Z,15.03
2023-05-07T02:26:58.289Z,14.82
2023-05-07T02:29:51.097Z,14.98
2023-05-07T02:32:45.477Z,14.88
2023-05-07T02:35:38.498Z,14.90
2023-05-07T02:38:30.975Z,14.89
2023-05-07T02:41:22.975Z,14.95
2023-05-07T02:44:15.321Z,14.91
2023-05-07T02:47:09.645Z,14.67
2023-05-07T02:50:04.541Z,14.84
2023-05-07T02:56:17.912Z,14.67
2023-05-07T02:59:10.053Z,14.56
2023-05-07T03:02:06.369Z,14.55
2023-05-07T03:08:12.872Z,14.50
2023-05-07T03:14:22.535Z,14.47
2023-05-07T03:17:15.095Z,14.37
2023-05-07T03:20:11.124Z,14.45
2023-05-07T03:23:04.092Z,14.35
2023-05-07T03:25:58.379Z,14.22
2023-05-07T03:28:51.207Z,14.25
2023-05-07T03:31:44.210Z,14.26
2023-05-07T03:34:37.374Z,14.17
2023-05-07T03:37:30.415Z,14.19
2023-05-07T03:40:27.527Z,14.15
2023-05-07T03:43:22.648Z,14.19
2023-05-07T03:46:23.511Z,14.09
2023-05-07T03:49:18.740Z,14.09
2023-05-07T03:52:11.050Z,14.10
2023-05-07T03:55:04.431Z,14.08
2023-05-07T03:57:59.796Z,14.09
2023-05-07T04:01:04.647Z,14.09
2023-05-07T04:03:58.309Z,13.95
2023-05-07T04:06:51.466Z,14.06
2023-05-07T04:09:44.361Z,14.12
2023-05-07T04:12:36.952Z,14.32
2023-05-07T04:15:31.044Z,14.25
2023-05-07T04:18:25.490Z,14.23
2023-05-07T04:21:18.578Z,14.29
2023-05-07T04:27:30.620Z,14.36
2023-05-07T04:30:23.228Z,14.26
2023-05-07T04:33:17.645Z,14.42
2023-05-07T04:36:12.398Z,14.27
2023-05-07T04:39:13.230Z,14.35
2023-05-07T04:42:09.711Z,14.43
2023-05-07T04:48:38.051Z,14.43
2023-05-07T04:51:49.705Z,14.35
2023-05-07T04:54:47.591Z,14.51
2023-05-07T04:57:42.255Z,14.53
2023-05-07T05:03:57.515Z,14.63
2023-05-07T05:09:58.918Z,14.67
2023-05-07T05:16:08.788Z,14.57
2023-05-07T05:19:01.484Z,14.72
2023-05-07T05:21:55.995Z,14.78
2023-05-07T05:24:49.019Z,14.77
2023-05-07T05:27:43.777Z,14.70
2023-05-07T05:30:37.030Z,14.97
2023-05-07T05:36:49.294Z,15.33
2023-05-07T05:42:47.462Z,15.59
2023-05-07T05:48:52.522Z,15.75
2023-05-07T05:51:45.439Z,15.84
2023-05-07T05:54:39.320Z,15.51
2023-05-07T05:57:32.803Z,15.77
2023-05-07T06:00:26.629Z,15.84
2023-05-07T06:03:26.934Z,16.10
2023-05-07T06:06:20.122Z,16.15
2023-05-07T06:09:13.558Z,15.73
2023-05-07T06:12:09.050Z,16.40
2023-05-07T06:15:02.333Z,16.62
2023-05-07T06:17:58.228Z,16.74
2023-05-07T06:20:51.160Z,16.87
2023-05-07T06:23:50.624Z,17.01
2023-05-07T06:26:43.208Z,16.71
2023-05-07T06:30:01.565Z,17.09
2023-05-07T06:32:54.220Z,17.38
2023-05-07T06:36:24.497Z,17.60
2023-05-07T06:39:22.363Z,17.69
2023-05-07T06:42:27.390Z,17.27
2023-05-07T06:45:26.075Z,17.44
2023-05-07T06:51:39.308Z,17.49
2023-05-07T06:54:34.271Z,17.23
2023-05-07T06:57:27.019Z,17.49
2023-05-07T07:00:21.468Z,17.44
2023-05-07T07:03:19.295Z,17.41
2023-05-07T07:06:13.385Z,17.64
2023-05-07T07:09:06.423Z,17.75
2023-05-07T07:15:08.890Z,17.64
2023-05-07T07:18:01.168Z,17.78
2023-05-07T07:20:53.894Z,18.04
2023-05-07T07:23:47.354Z,18.17
2023-05-07T07:30:14.834Z,18.37
2023-05-07T07:36:38.930Z,18.19
2023-05-07T07:39:40.147Z,18.57
2023-05-07T07:42:34.432Z,18.69
2023-05-07T07:45:29.941Z,18.88
2023-05-07T07:48:22.436Z,19.24
2023-05-07T07:51:15.094Z,19.97
2023-05-07T07:54:08.166Z,20.40
2023-05-07T07:57:02.412Z,20.42
2023-05-07T07:59:58.134Z,20.20
2023-05-07T08:02:52.817Z,20.07
2023-05-07T08:05:52.056Z,19.75
2023-05-07T08:08:45.048Z,19.73
2023-05-07T08:12:10.352Z,19.72
2023-05-07T08:15:04.339Z,19.72
2023-05-07T08:18:11.418Z,19.73
2023-05-07T08:21:08.681Z,19.60
2023-05-07T08:27:22.547Z,19.56
2023-05-07T08:30:16.288Z,19.52
2023-05-07T08:33:10.690Z,19.62
2023-05-07T08:36:04.780Z,19.60
2023-05-07T08:38:57.142Z,19.47
2023-05-07T08:42:18.547Z,19.80
2023-05-07T08:45:12.355Z,20.01
2023-05-07T08:48:17.364Z,20.29
2023-05-07T08:51:42.557Z,20.20
2023-05-07T08:54:38.907Z,20.63
2023-05-07T08:57:33.438Z,21.05
2023-05-07T09:00:26.335Z,20.74
2023-05-07T09:03:21.284Z,20.83
2023-05-07T09:06:17.497Z,20.94
2023-05-07T09:09:10.805Z,20.54
2023-05-07T09:12:06.069Z,20.53
2023-05-07T09:15:00.910Z,21.02
2023-05-07T09:17:55.346Z,20.88
2023-05-07T09:20:48.272Z,20.96
2023-05-07T09:23:43.596Z,20.80
2023-05-07T09:26:40.138Z,20.82
2023-05-07T09:32:47.975Z,20.51
2023-05-07T09:39:01.739Z,21.01
2023-05-07T09:41:55.578Z,20.77
2023-05-07T09:45:01.010Z,20.58
2023-05-07T09:48:00.483Z,20.62
2023-05-07T09:50:59.038Z,21.16
2023-05-07T09:53:54.442Z,21.19
2023-05-07T09:56:50.424Z,21.02
2023-05-07T09:59:45.701Z,21.16
2023-05-07T10:02:47.279Z,21.18
2023-05-07T10:05:42.052Z,21.39
2023-05-07T10:08:35.377Z,21.68
2023-05-07T10:11:29.947Z,22.19
2023-05-07T10:14:23.282Z,21.89
2023-05-07T10:20:31.918Z,22.40
2023-05-07T10:23:25.950Z,22.75
2023-05-07T10:26:23.974Z,22.89
2023-05-07T10:29:36.578Z,22.98
2023-05-07T10:32:39.683Z,22.86
2023-05-07T10:35:32.792Z,22.87
2023-05-07T10:38:21.565Z,22.96
2023-05-07T10:41:09.393Z,22.48
2023-05-07T10:44:09.622Z,22.51
2023-05-07T10:47:09.857Z,22.97
2023-05-07T10:50:23.530Z,22.77
2023-05-07T10:56:29.709Z,22.24
2023-05-07T11:03:05.952Z,22.49
2023-05-07T11:06:11.756Z,21.92
2023-05-07T11:13:01.613Z,21.51
2023-05-07T11:16:28.069Z,21.56
2023-05-07T11:19:51.700Z,21.67
2023-05-07T11:22:56.080Z,22.07
2023-05-07T11:26:13.000Z,22.89
2023-05-07T11:29:12.669Z,22.75
2023-05-07T11:32:06.945Z,22.79
2023-05-07T11:35:07.193Z,22.54
2023-05-07T11:38:01.787Z,22.25
2023-05-07T11:43:58.189Z,21.57
2023-05-07T11:46:51.736Z,21.93
2023-05-07T11:49:45.087Z,21.92
2023-05-07T11:52:37.803Z,21.79
2023-05-07T11:55:29.925Z,21.96
2023-05-07T12:02:00.024Z,21.54
2023-05-07T12:05:08.402Z,22.06
2023-05-07T12:08:00.233Z,21.95
2023-05-07T12:10:53.281Z,21.69
2023-05-07T12:13:46.707Z,21.87
2023-05-07T12:16:40.895Z,21.84
2023-05-07T12:23:03.399Z,22.49
2023-05-07T12:26:25.596Z,22.79
2023-05-07T12:29:19.128Z,23.16
2023-05-07T12:32:48.532Z,23.05
2023-05-07T12:35:43.416Z,23.15
2023-05-07T12:38:54.054Z,23.20
2023-05-07T12:41:57.037Z,23.96
2023-05-07T12:44:49.486Z,24.16
2023-05-07T12:47:45.834Z,24.44
2023-05-07T12:50:38.590Z,24.97
2023-05-07T12:53:33.022Z,25.42
2023-05-07T12:56:25.351Z,25.47
2023-05-07T12:59:19.712Z,25.61
2023-05-07T13:02:12.419Z,25.32
2023-05-07T13:05:07.946Z,25.64
2023-05-07T13:08:00.408Z,25.98
2023-05-07T13:10:53.966Z,26.11
2023-05-07T13:13:46.509Z,26.21
2023-05-07T13:16:40.569Z,26.04
2023-05-07T13:19:33.434Z,25.66
2023-05-07T13:22:26.231Z,25.26
2023-05-07T13:28:40.258Z,24.79
2023-05-07T13:31:34.764Z,24.17
2023-05-07T13:37:39.540Z,24.01
2023-05-07T13:40:32.356Z,23.91
2023-05-07T13:46:37.772Z,22.89
2023-05-07T13:52:51.383Z,22.74
2023-05-07T13:55:44.522Z,22.48
2023-05-07T13:58:42.294Z,22.31
2023-05-07T14:01:41.197Z,22.81
2023-05-07T14:04:34.535Z,22.72
2023-05-07T14:07:27.295Z,22.48
2023-05-07T14:10:21.761Z,22.25
2023-05-07T14:13:14.447Z,22.33
2023-05-07T14:16:07.775Z,22.08
2023-05-07T14:19:00.169Z,22.12
2023-05-07T14:21:52.442Z,22.46
2023-05-07T14:24:48.544Z,22.38
2023-05-07T14:27:46.691Z,22.43
2023-05-07T14:30:39.234Z,22.56
2023-05-07T14:33:32.163Z,22.29
2023-05-07T14:39:36.884Z,21.91
2023-05-07T14:42:29.185Z,21.52
2023-05-07T14:45:24.082Z,21.01
2023-05-07T14:48:16.363Z,21.14
2023-05-07T14:51:37.633Z,21.67
2023-05-07T14:54:30.596Z,22.00
2023-05-07T14:58:00.550Z,22.20
2023-05-07T15:00:54.876Z,22.15
2023-05-07T15:04:02.943Z,22.04
2023-05-07T15:06:55.090Z,22.34
2023-05-07T15:09:48.289Z,22.30
2023-05-07T15:12:39.962Z,22.47
2023-05-07T15:15:32.411Z,22.24
2023-05-07T15:18:26.831Z,22.25
2023-05-07T15:21:19.489Z,21.99
2023-05-07T15:24:12.466Z,21.91
2023-05-07T15:27:06.170Z,21.80
2023-05-07T15:29:58.215Z,21.92
2023-05-07T15:33:28.574Z,21.96
2023-05-07T15:36:23.043Z,21.69
2023-05-07T15:42:27.647Z,21.68
2023-05-07T15:45:20.323Z,21.57
2023-05-07T15:48:13.579Z,21.64
2023-05-07T15:51:08.687Z,21.56
2023-05-07T15:57:15.027Z,21.22
2023-05-07T16:00:09.587Z,21.30
2023-05-07T16:03:05.900Z,21.00
2023-05-07T16:06:00.565Z,20.83
2023-05-07T16:11:58.202Z,20.89
2023-05-07T16:18:09.366Z,20.50
2023-05-07T16:21:02.376Z,20.62
2023-05-07T16:23:55.228Z,20.51
2023-05-07T16:26:48.457Z,20.36
2023-05-07T16:29:41.239Z,20.40
2023-05-07T16:32:34.587Z,20.25
2023-05-07T16:35:59.235Z,20.12
2023-05-07T16:38:53.935Z,19.95
2023-05-07T16:41:48.597Z,20.03
2023-05-07T16:44:41.326Z,20.06
2023-05-07T16:47:34.389Z,19.89
2023-05-07T16:50:27.498Z,19.58
2023-05-07T16:53:20.756Z,19.63
2023-05-07T16:56:14.511Z,19.47
2023-05-07T17:02:14.232Z,19.14
2023-05-07T17:08:19.723Z,18.99
2023-05-07T17:14:29.994Z,18.76
2023-05-07T17:17:22.048Z,18.62
2023-05-07T17:20:15.282Z,18.56
2023-05-07T17:26:17.692Z,18.69
2023-05-07T17:32:29.386Z,18.67
2023-05-07T17:35:22.335Z,18.56
2023-05-07T17:38:15.866Z,18.36
2023-05-07T17:44:28.192Z,18.28
2023-05-07T17:47:20.144Z,18.29
2023-05-07T17:53:28.613Z,17.85
2023-05-07T17:56:21.614Z,18.06
2023-05-07T17:59:14.091Z,18.10
2023-05-07T18:05:18.760Z,17.73
2023-05-07T18:08:11.287Z,17.55
2023-05-07T18:14:17.538Z,17.71
2023-05-07T18:20:21.788Z,17.71
2023-05-07T18:23:14.440Z,17.74
2023-05-07T18:26:08.511Z,17.52
2023-05-07T18:29:01.145Z,17.30
2023-05-07T18:31:54.671Z,17.29
2023-05-07T18:34:47.428Z,16.92
2023-05-07T18:37:40.556Z,16.79
2023-05-07T18:40:33.268Z,16.72
2023-05-07T18:46:48.609Z,16.53
2023-05-07T18:52:52.570Z,16.21
2023-05-07T18:58:57.660Z,16.15
2023-05-07T19:01:50.583Z,16.00
2023-05-07T19:07:57.018Z,15.84
2023-05-07T19:10:49.497Z,15.66
2023-05-07T19:13:46.471Z,15.63
2023-05-07T19:16:39.461Z,15.61
2023-05-07T19:19:32.623Z,15.51
2023-05-07T19:22:25.290Z,15.38
2023-05-07T19:25:19.921Z,15.28
2023-05-07T19:31:26.947Z,15.07
2023-05-07T19:34:19.530Z,14.92
2023-05-07T19:37:12.242Z,14.83
2023-05-07T19:40:06.590Z,14.82
2023-05-07T19:46:09.579Z,14.77
2023-05-07T19:49:02.264Z,14.65
2023-05-07T19:52:07.064Z,14.65
2023-05-07T19:54:59.361Z,14.58
2023-05-07T20:01:39.907Z,14.37
2023-05-07T20:04:37.237Z,14.27
2023-05-07T20:11:00.018Z,13.98
2023-05-07T20:14:10.086Z,13.99
2023-05-07T20:17:00.571Z,13.95
2023-05-07T20:23:14.433Z,13.74
2023-05-07T20:29:16.168Z,13.67
2023-05-07T20:32:10.387Z,13.75
2023-05-07T20:35:03.269Z,13.81
2023-05-07T20:37:56.646Z,13.77
2023-05-07T20:40:49.425Z,13.51
2023-05-07T20:43:42.704Z,13.58
2023-05-07T20:46:36.536Z,13.48
2023-05-07T20:49:30.643Z,13.48
2023-05-07T20:52:22.980Z,13.48
2023-05-07T20:55:15.338Z,13.17
2023-05-07T20:58:08.326Z,13.32
2023-05-07T21:01:01.295Z,13.23
2023-05-07T21:03:54.521Z,13.25
2023-05-07T21:10:25.997Z,13.15
2023-05-07T21:13:35.672Z,13.20
2023-05-07T21:16:25.333Z,13.18
2023-05-07T21:19:18.567Z,13.04
2023-05-07T21:22:11.279Z,13.13
2023-05-07T21:25:04.702Z,13.12
2023-05-07T21:27:58.840Z,13.15
2023-05-07T21:30:53.021Z,13.12
2023-05-07T21:33:45.531Z,13.05
2023-05-07T21:36:38.697Z,12.98
2023-05-07T21:39:31.445Z,12.95
2023-05-07T21:42:24.173Z,12.93
2023-05-07T21:45:17.547Z,12.88
2023-05-07T21:48:10.630Z,13.05
2023-05-07T21:51:03.858Z,12.87
2023-05-07T21:53:56.459Z,12.85
2023-05-07T21:56:50.151Z,12.84
2023-05-07T21:59:43.732Z,12.72
2023-05-07T22:02:38.129Z,12.75
2023-05-07T22:05:30.388Z,12.69
2023-05-07T22:08:23.542Z,12.68
2023-05-07T22:11:16.446Z,12.74
2023-05-07T22:14:09.156Z,12.69
2023-05-07T22:17:01.427Z,12.66
2023-05-07T22:23:12.016Z,12.53
2023-05-07T22:26:11.003Z,12.50
2023-05-07T22:29:03.419Z,12.47
2023-05-07T22:31:56.501Z,12.49
2023-05-07T22:34:49.626Z,12.52
2023-05-07T22:37:42.387Z,12.41
2023-05-07T22:40:36.935Z,12.39
2023-05-07T22:43:29.442Z,12.40
2023-05-07T22:46:22.363Z,12.27
2023-05-07T22:49:15.647Z,12.34
2023-05-07T22:52:08.251Z,12.27
2023-05-07T22:55:00.261Z,12.25
2023-05-07T22:58:10.466Z,12.26
2023-05-07T23:01:02.216Z,12.30
2023-05-07T23:03:55.439Z,12.16
2023-05-07T23:10:00.677Z,12.17
2023-05-07T23:16:07.687Z,12.23
2023-05-07T23:19:00.220Z,12.15
2023-05-07T23:21:52.397Z,12.12
2023-05-07T23:28:06.480Z,11.80
2023-05-07T23:30:59.058Z,11.80
2023-05-07T23:37:05.546Z,11.83
2023-05-07T23:39:53.983Z,11.84
2023-05-07T23:42:40.153Z,11.78
2023-05-07T23:45:26.338Z,11.75
2023-05-07T23:48:12.372Z,11.74
2023-05-07T23:50:58.588Z,11.70
2023-05-07T23:53:46.211Z,11.68
2023-05-07T23:56:32.331Z,11.59
